Radcliffe, Iowa
Current Conditions -  °F | °C
As of 4:35 AM on Wednesday 22 Oct 2014 (Local Time) from KIFA Reporting Station
Clear Clear  
Wind Chill: 32°   Ceiling: Unl
Heat Index: 39°   Visibility: 10mi
Dew Point: 37°   Wind: 12mph
Humidity: 89%   Direction: 130°SE
Pressure: 30.22"   Gusts: NA
Location:  42.32°N, 93.43°W
Report Text: KIFA 220935Z AUTO 13010KT 10SM CLR 04/03 A3022 RMK AO2 T00410025
Loading
Personal Weather Stations






























Interactive Weather Map
Tropical Storm Tracking
New forecast layout! Learn more

10-Day Weather Forecast

Advertisements
Track Severe Weather on mobile